createdAt,value
2018-09-29T00:02:03.482Z,100891.92
2018-09-29T00:04:31.214Z,100887.74
2018-09-29T00:06:58.777Z,100887.87
2018-09-29T00:09:26.412Z,100887.07
2018-09-29T00:11:53.950Z,100877.04
2018-09-29T00:14:21.520Z,100878.40
2018-09-29T00:16:49.073Z,100889.72
2018-09-29T00:19:16.605Z,100880.42
2018-09-29T00:21:44.173Z,100887.45
2018-09-29T00:24:11.689Z,100885.56
2018-09-29T00:26:39.272Z,100891.47
2018-09-29T00:29:06.795Z,100890.20
2018-09-29T00:31:34.322Z,100888.46
2018-09-29T00:34:01.900Z,100887.63
2018-09-29T00:36:29.465Z,100886.83
2018-09-29T00:38:57.122Z,100889.06
2018-09-29T00:41:24.684Z,100896.07
2018-09-29T00:43:52.209Z,100885.48
2018-09-29T00:46:19.893Z,100880.55
2018-09-29T00:48:47.465Z,100891.39
2018-09-29T00:51:15.004Z,100888.19
2018-09-29T00:53:42.604Z,100878.98
2018-09-29T00:56:10.202Z,100874.77
2018-09-29T00:58:37.754Z,100882.19
2018-09-29T01:01:05.305Z,100878.59
2018-09-29T01:03:33.096Z,100876.81
2018-09-29T01:06:00.702Z,100872.13
2018-09-29T01:08:28.245Z,100867.83
2018-09-29T01:10:55.806Z,100868.91
2018-09-29T01:13:23.356Z,100869.84
2018-09-29T01:15:50.880Z,100868.95
2018-09-29T01:18:18.503Z,100873.88
2018-09-29T01:20:46.041Z,100865.67
2018-09-29T01:23:13.647Z,100858.86
2018-09-29T01:25:41.187Z,100859.47
2018-09-29T01:28:08.747Z,100858.62
2018-09-29T01:30:36.326Z,100864.80
2018-09-29T01:33:03.909Z,100863.36
2018-09-29T01:35:31.482Z,100867.10
2018-09-29T01:37:59.012Z,100864.52
2018-09-29T01:40:26.575Z,100857.00
2018-09-29T01:42:54.143Z,100851.42
2018-09-29T01:45:21.744Z,100856.00
2018-09-29T01:47:49.292Z,100850.58
2018-09-29T01:50:17.406Z,100855.94
2018-09-29T01:52:44.987Z,100858.45
2018-09-29T01:55:12.513Z,100856.61
2018-09-29T01:57:40.075Z,100859.98
2018-09-29T02:00:07.596Z,100858.25
2018-09-29T02:02:35.286Z,100854.77
2018-09-29T02:05:02.733Z,100856.32
2018-09-29T02:07:30.318Z,100853.20
2018-09-29T02:09:57.886Z,100851.35
2018-09-29T02:12:25.430Z,100846.05
2018-09-29T02:14:53.015Z,100849.27
2018-09-29T02:17:20.730Z,100842.16
2018-09-29T02:19:48.291Z,100839.29
2018-09-29T02:22:15.816Z,100846.54
2018-09-29T02:24:43.397Z,100848.77
2018-09-29T02:27:10.926Z,100852.37
2018-09-29T02:29:38.544Z,100849.22
2018-09-29T02:32:06.089Z,100847.46
2018-09-29T02:34:33.922Z,100848.22
2018-09-29T02:37:01.482Z,100846.54
2018-09-29T02:39:29.079Z,100846.44
2018-09-29T02:41:56.613Z,100850.17
2018-09-29T02:44:24.144Z,100844.50
2018-09-29T02:46:51.713Z,100846.30
2018-09-29T02:49:19.223Z,100847.80
2018-09-29T02:51:46.779Z,100858.46
2018-09-29T02:54:14.345Z,100859.57
2018-09-29T02:56:41.944Z,100852.80
2018-09-29T02:59:09.507Z,100858.54
2018-09-29T03:01:37.043Z,100855.94
2018-09-29T03:04:04.640Z,100856.05
2018-09-29T03:06:32.380Z,100852.83
2018-09-29T03:08:59.989Z,100855.96
2018-09-29T03:11:27.595Z,100854.70
2018-09-29T03:13:55.112Z,100855.97
2018-09-29T03:16:22.707Z,100853.40
2018-09-29T03:18:50.279Z,100853.11
2018-09-29T03:21:17.855Z,100847.69
2018-09-29T03:23:45.426Z,100850.75
2018-09-29T03:26:12.992Z,100845.36
2018-09-29T03:28:40.722Z,100846.86
2018-09-29T03:31:08.278Z,100849.63
2018-09-29T03:33:35.805Z,100848.21
2018-09-29T03:36:03.348Z,100845.27
2018-09-29T03:38:30.918Z,100831.59
2018-09-29T03:40:58.716Z,100832.70
2018-09-29T03:43:26.264Z,100829.02
2018-09-29T03:45:53.788Z,100823.35
2018-09-29T03:48:21.360Z,100829.16
2018-09-29T03:50:48.880Z,100828.09
2018-09-29T03:53:16.467Z,100825.64
2018-09-29T03:55:43.984Z,100826.20
2018-09-29T03:58:11.528Z,100825.00
2018-09-29T04:00:39.132Z,100822.08
2018-09-29T04:03:06.675Z,100824.50
2018-09-29T04:05:34.187Z,100818.41
2018-09-29T04:08:01.788Z,100817.23
2018-09-29T04:10:29.360Z,100824.48
2018-09-29T04:12:56.913Z,100826.81
2018-09-29T04:15:24.456Z,100831.81
2018-09-29T04:17:52.036Z,100836.42
2018-09-29T04:20:19.600Z,100834.34
2018-09-29T04:22:47.170Z,100838.70
2018-09-29T04:25:14.696Z,100846.05
2018-09-29T04:27:42.223Z,100849.35
2018-09-29T04:30:10.014Z,100839.12
2018-09-29T04:32:37.534Z,100841.11
2018-09-29T04:35:05.053Z,100841.81
2018-09-29T04:37:32.639Z,100839.38
2018-09-29T04:40:00.146Z,100845.20
2018-09-29T04:42:27.685Z,100846.42
2018-09-29T04:44:55.229Z,100843.61
2018-09-29T04:47:22.798Z,100844.22
2018-09-29T04:49:50.405Z,100849.41
2018-09-29T04:52:17.990Z,100850.96
2018-09-29T04:54:45.553Z,100852.07
2018-09-29T04:57:13.095Z,100860.42
2018-09-29T04:59:40.697Z,100864.11
2018-09-29T05:02:08.224Z,100862.61
2018-09-29T05:04:35.816Z,100868.02
2018-09-29T05:07:03.340Z,100873.70
2018-09-29T05:09:30.900Z,100874.76
2018-09-29T05:11:58.487Z,100878.11
2018-09-29T05:14:26.056Z,100872.88
2018-09-29T05:16:53.908Z,100870.67
2018-09-29T05:19:21.500Z,100862.14
2018-09-29T05:21:49.061Z,100872.19
2018-09-29T05:24:16.660Z,100868.77
2018-09-29T05:26:44.314Z,100870.66
2018-09-29T05:29:11.848Z,100868.77
2018-09-29T05:31:39.421Z,100868.09
2018-09-29T05:34:06.971Z,100873.66
2018-09-29T05:36:34.536Z,100875.63
2018-09-29T05:39:02.124Z,100873.45
2018-09-29T05:41:29.773Z,100878.73
2018-09-29T05:43:57.464Z,100874.81
2018-09-29T05:46:24.989Z,100878.22
2018-09-29T05:48:52.565Z,100876.29
2018-09-29T05:51:20.151Z,100882.17
2018-09-29T05:53:47.908Z,100880.22
2018-09-29T05:56:15.463Z,100886.62
2018-09-29T05:58:43.027Z,100876.73
2018-09-29T06:01:10.538Z,100872.55
2018-09-29T06:03:38.247Z,100874.42
2018-09-29T06:06:05.937Z,100872.64
2018-09-29T06:08:33.589Z,100873.25
2018-09-29T06:11:01.146Z,100883.74
2018-09-29T06:13:28.816Z,100873.94
2018-09-29T06:15:56.550Z,100885.09
2018-09-29T06:18:24.173Z,100884.20
2018-09-29T06:20:51.774Z,100885.84
2018-09-29T06:23:19.401Z,100885.25
2018-09-29T06:25:46.934Z,100893.04
2018-09-29T06:28:14.676Z,100887.77
2018-09-29T06:30:42.213Z,100892.96
2018-09-29T06:33:09.762Z,100892.77
2018-09-29T06:35:37.284Z,100894.05
2018-09-29T06:38:04.843Z,100892.17
2018-09-29T06:40:32.402Z,100895.13
2018-09-29T06:42:59.975Z,100889.91
2018-09-29T06:45:27.493Z,100886.91
2018-09-29T06:47:55.062Z,100886.42
2018-09-29T06:50:22.644Z,100889.22
2018-09-29T06:52:50.204Z,100890.63
2018-09-29T06:55:17.751Z,100885.41
2018-09-29T06:57:45.322Z,100889.02
2018-09-29T07:00:12.938Z,100887.92
2018-09-29T07:02:40.509Z,100884.20
2018-09-29T07:05:08.115Z,100889.20
2018-09-29T07:07:35.655Z,100879.47
2018-09-29T07:10:03.182Z,100877.64
2018-09-29T07:12:30.930Z,100876.98
2018-09-29T07:14:58.467Z,100874.97
2018-09-29T07:17:26.433Z,100878.64
2018-09-29T07:19:54.615Z,100875.55
2018-09-29T07:22:24.190Z,100877.77
2018-09-29T07:24:52.521Z,100883.39
2018-09-29T07:27:20.483Z,100890.11
2018-09-29T07:29:48.537Z,100887.06
2018-09-29T07:32:17.346Z,100884.16
2018-09-29T07:34:45.328Z,100891.05
2018-09-29T07:37:13.973Z,100889.59
2018-09-29T07:39:41.538Z,100894.94
2018-09-29T07:42:09.192Z,100896.33
2018-09-29T07:44:37.611Z,100902.27
2018-09-29T07:47:05.377Z,100902.72
2018-09-29T07:49:33.207Z,100895.86
2018-09-29T07:52:00.817Z,100892.57
2018-09-29T07:54:28.395Z,100896.08
2018-09-29T07:56:55.950Z,100885.50
2018-09-29T07:59:23.469Z,100888.23
2018-09-29T08:01:51.045Z,100886.77
2018-09-29T08:04:18.616Z,100893.64
2018-09-29T08:06:46.327Z,100889.56
2018-09-29T08:09:14.008Z,100891.02
2018-09-29T08:11:41.610Z,100893.98
2018-09-29T08:14:09.289Z,100890.85
2018-09-29T08:16:37.076Z,100894.31
2018-09-29T08:19:05.035Z,100893.46
2018-09-29T08:21:32.810Z,100894.48
2018-09-29T08:24:00.523Z,100894.27
2018-09-29T08:26:28.049Z,100895.37
2018-09-29T08:28:55.610Z,100892.34
2018-09-29T08:31:23.204Z,100899.75
2018-09-29T08:33:50.795Z,100899.79
2018-09-29T08:36:18.531Z,100899.45
2018-09-29T08:38:46.252Z,100898.73
2018-09-29T08:41:14.107Z,100894.47
2018-09-29T08:43:41.660Z,100894.27
2018-09-29T08:46:09.500Z,100894.16
2018-09-29T08:48:37.048Z,100889.61
2018-09-29T08:51:04.757Z,100891.18
2018-09-29T08:53:37.268Z,100891.93
2018-09-29T08:56:05.542Z,100883.38
2018-09-29T08:58:33.344Z,100881.98
2018-09-29T09:01:00.935Z,100871.70
2018-09-29T09:03:28.691Z,100883.17
2018-09-29T09:05:56.565Z,100879.66
2018-09-29T09:08:24.206Z,100874.17
2018-09-29T09:10:51.818Z,100872.20
2018-09-29T09:13:19.635Z,100870.46
2018-09-29T09:15:47.223Z,100865.02
2018-09-29T09:18:14.795Z,100870.58
2018-09-29T09:20:42.500Z,100871.09
2018-09-29T09:23:10.101Z,100870.67
2018-09-29T09:25:37.909Z,100866.96
2018-09-29T09:28:05.493Z,100859.92
2018-09-29T09:30:33.241Z,100862.66
2018-09-29T09:33:00.891Z,100859.05
2018-09-29T09:35:28.539Z,100856.06
2018-09-29T09:37:56.235Z,100859.72
2018-09-29T09:40:23.911Z,100854.45
2018-09-29T09:42:51.666Z,100849.27
2018-09-29T09:45:19.272Z,100848.73
2018-09-29T09:47:47.030Z,100838.09
2018-09-29T09:50:14.850Z,100837.57
2018-09-29T09:52:42.537Z,100835.93
2018-09-29T09:55:10.155Z,100838.07
2018-09-29T09:57:37.713Z,100836.23
2018-09-29T10:00:05.425Z,100823.41
2018-09-29T10:02:33.198Z,100824.50
2018-09-29T10:05:00.783Z,100815.24
2018-09-29T10:07:28.413Z,100811.02
2018-09-29T10:09:56.133Z,100802.17
2018-09-29T10:12:23.685Z,100804.56
2018-09-29T10:14:51.279Z,100806.02
2018-09-29T10:17:18.954Z,100801.03
2018-09-29T10:19:46.469Z,100791.52
2018-09-29T10:22:14.080Z,100785.14
2018-09-29T10:24:41.848Z,100791.42
2018-09-29T10:27:10.228Z,100779.59
2018-09-29T10:29:37.790Z,100781.23
2018-09-29T10:32:05.471Z,100780.54
2018-09-29T10:34:33.197Z,100775.91
2018-09-29T10:37:01.112Z,100767.23
2018-09-29T10:39:28.682Z,100764.77
2018-09-29T10:41:56.363Z,100769.58
2018-09-29T10:44:24.082Z,100765.38
2018-09-29T10:46:51.695Z,100766.52
2018-09-29T10:49:19.445Z,100766.92
2018-09-29T10:51:46.954Z,100758.94
2018-09-29T10:54:14.661Z,100766.22
2018-09-29T10:56:42.296Z,100760.08
2018-09-29T10:59:09.959Z,100760.91
2018-09-29T11:01:37.534Z,100756.09
2018-09-29T11:04:05.101Z,100750.94
2018-09-29T11:06:32.742Z,100745.70
2018-09-29T11:09:00.459Z,100744.53
2018-09-29T11:11:27.994Z,100745.92
2018-09-29T11:13:55.568Z,100743.39
2018-09-29T11:16:23.112Z,100734.36
2018-09-29T11:18:50.633Z,100734.09
2018-09-29T11:21:18.197Z,100724.59
2018-09-29T11:23:45.785Z,100728.02
2018-09-29T11:26:13.348Z,100717.09
2018-09-29T11:28:40.888Z,100713.92
2018-09-29T11:31:08.564Z,100712.09
2018-09-29T11:33:36.090Z,100711.88
2018-09-29T11:36:03.678Z,100705.25
2018-09-29T11:38:31.272Z,100703.25
2018-09-29T11:40:58.841Z,100700.73
2018-09-29T11:43:26.439Z,100685.66
2018-09-29T11:45:53.960Z,100682.61
2018-09-29T11:48:21.519Z,100672.57
2018-09-29T11:50:49.044Z,100675.35
2018-09-29T11:53:16.626Z,100671.72
2018-09-29T11:55:44.148Z,100670.41
2018-09-29T11:58:11.704Z,100663.61
2018-09-29T12:00:39.263Z,100653.45
2018-09-29T12:03:06.798Z,100645.28
2018-09-29T12:05:34.338Z,100642.55
2018-09-29T12:08:01.910Z,100638.45
2018-09-29T12:10:29.441Z,100636.03
2018-09-29T12:12:57.012Z,100629.81
2018-09-29T12:15:24.543Z,100629.89
2018-09-29T12:17:52.113Z,100628.66
2018-09-29T12:20:19.664Z,100625.62
2018-09-29T12:22:47.222Z,100620.08
2018-09-29T12:25:14.749Z,100613.06
2018-09-29T12:27:42.367Z,100607.81
2018-09-29T12:30:09.914Z,100612.95
2018-09-29T12:32:37.435Z,100607.09
2018-09-29T12:35:04.997Z,100594.92
2018-09-29T12:37:32.665Z,100590.00
2018-09-29T12:40:00.167Z,100591.08
2018-09-29T12:42:27.709Z,100586.26
2018-09-29T12:44:55.316Z,100587.78
2018-09-29T12:47:22.881Z,100576.46
2018-09-29T12:49:50.471Z,100571.92
2018-09-29T12:52:18.050Z,100569.91
2018-09-29T12:54:45.578Z,100571.38
2018-09-29T12:57:13.154Z,100572.92
2018-09-29T12:59:40.704Z,100568.80
2018-09-29T13:02:08.313Z,100565.03
2018-09-29T13:04:35.840Z,100559.13
2018-09-29T13:07:03.404Z,100558.64
2018-09-29T13:09:30.956Z,100551.73
2018-09-29T13:11:58.537Z,100551.21
2018-09-29T13:14:26.064Z,100545.21
2018-09-29T13:16:53.689Z,100545.33
2018-09-29T13:19:21.155Z,100541.23
2018-09-29T13:21:48.727Z,100535.23
2018-09-29T13:24:16.263Z,100524.38
2018-09-29T13:26:43.834Z,100527.45
2018-09-29T13:29:11.357Z,100525.48
2018-09-29T13:31:38.946Z,100522.59
2018-09-29T13:34:06.488Z,100523.03
2018-09-29T13:36:34.061Z,100516.13
2018-09-29T13:39:01.598Z,100516.95
2018-09-29T13:41:29.144Z,100512.49
2018-09-29T13:43:56.709Z,100510.52
2018-09-29T13:46:24.249Z,100506.84
2018-09-29T13:48:51.850Z,100505.78
2018-09-29T13:51:19.426Z,100507.34
2018-09-29T13:53:46.981Z,100500.34
2018-09-29T13:56:14.501Z,100497.94
2018-09-29T13:58:42.121Z,100487.56
2018-09-29T14:01:09.678Z,100484.74
2018-09-29T14:03:37.276Z,100481.27
2018-09-29T14:06:04.801Z,100473.90
2018-09-29T14:08:32.649Z,100469.41
2018-09-29T14:11:00.234Z,100466.64
2018-09-29T14:13:27.874Z,100468.45
2018-09-29T14:15:55.402Z,100454.81
2018-09-29T14:18:22.977Z,100444.23
2018-09-29T14:20:50.538Z,100443.45
2018-09-29T14:23:18.069Z,100439.63
2018-09-29T14:25:45.697Z,100437.77
2018-09-29T14:28:13.298Z,100433.81
2018-09-29T14:30:40.887Z,100428.22
2018-09-29T14:33:08.449Z,100429.31
2018-09-29T14:35:35.973Z,100420.63
2018-09-29T14:38:03.543Z,100416.63
2018-09-29T14:40:31.131Z,100410.23
2018-09-29T14:42:58.887Z,100401.65
2018-09-29T14:45:26.465Z,100409.67
2018-09-29T14:47:54.057Z,100402.71
2018-09-29T14:50:21.606Z,100403.75
2018-09-29T14:52:49.230Z,100403.83
2018-09-29T14:55:16.779Z,100399.02
2018-09-29T14:57:44.356Z,100396.11
2018-09-29T15:00:11.928Z,100393.37
2018-09-29T15:02:39.496Z,100389.39
2018-09-29T15:05:07.056Z,100385.25
2018-09-29T15:07:34.636Z,100382.63
2018-09-29T15:10:02.293Z,100382.98
2018-09-29T15:12:29.836Z,100382.42
2018-09-29T15:14:57.420Z,100375.58
2018-09-29T15:17:25.005Z,100370.23
2018-09-29T15:19:52.546Z,100367.69
2018-09-29T15:22:20.065Z,100372.35
2018-09-29T15:24:47.625Z,100367.46
2018-09-29T15:27:15.325Z,100366.97
2018-09-29T15:29:43.032Z,100363.72
2018-09-29T15:32:10.600Z,100356.30
2018-09-29T15:34:38.161Z,100361.19
2018-09-29T15:37:05.826Z,100354.25
2018-09-29T15:39:33.343Z,100359.76
2018-09-29T15:42:01.021Z,100355.30
2018-09-29T15:44:28.556Z,100357.70
2018-09-29T15:46:56.120Z,100350.64
2018-09-29T15:49:23.698Z,100341.38
2018-09-29T15:51:51.238Z,100336.47
2018-09-29T15:54:19.943Z,100331.49
2018-09-29T15:56:47.525Z,100334.55
2018-09-29T15:59:15.067Z,100331.44
2018-09-29T16:01:42.595Z,100330.60
2018-09-29T16:04:10.170Z,100326.92
2018-09-29T16:06:37.719Z,100326.50
2018-09-29T16:09:05.327Z,100330.25
2018-09-29T16:11:32.846Z,100320.81
2018-09-29T16:14:00.414Z,100321.58
2018-09-29T16:16:28.007Z,100317.05
2018-09-29T16:18:55.577Z,100313.46
2018-09-29T16:21:23.132Z,100313.86
2018-09-29T16:23:50.654Z,100310.13
2018-09-29T16:26:18.243Z,100307.45
2018-09-29T16:28:45.808Z,100308.09
2018-09-29T16:31:13.340Z,100307.23
2018-09-29T16:33:40.916Z,100304.59
2018-09-29T16:36:08.562Z,100296.91
2018-09-29T16:38:36.102Z,100301.61
2018-09-29T16:41:03.618Z,100306.83
2018-09-29T16:43:31.232Z,100297.75
2018-09-29T16:45:58.785Z,100299.77
2018-09-29T16:48:26.318Z,100292.06
2018-09-29T16:50:53.875Z,100296.01
2018-09-29T16:53:21.418Z,100298.69
2018-09-29T16:55:48.985Z,100302.56
2018-09-29T16:58:16.512Z,100298.11
2018-09-29T17:00:44.073Z,100299.27
2018-09-29T17:03:11.585Z,100299.42
2018-09-29T17:05:39.210Z,100298.75
2018-09-29T17:08:06.726Z,100304.08
2018-09-29T17:10:34.284Z,100296.42
2018-09-29T17:13:01.846Z,100299.55
2018-09-29T17:15:29.437Z,100296.12
2018-09-29T17:17:56.997Z,100299.62
2018-09-29T17:20:24.544Z,100298.13
2018-09-29T17:22:52.129Z,100292.48
2018-09-29T17:25:19.724Z,100291.43
2018-09-29T17:27:47.248Z,100293.98
2018-09-29T17:30:14.777Z,100292.45
2018-09-29T17:32:42.335Z,100286.86
2018-09-29T17:35:09.909Z,100287.80
2018-09-29T17:37:37.426Z,100285.20
2018-09-29T17:40:04.991Z,100290.63
2018-09-29T17:42:32.575Z,100284.94
2018-09-29T17:45:01.291Z,100290.39
2018-09-29T17:47:28.891Z,100287.38
2018-09-29T17:49:56.402Z,100284.17
2018-09-29T17:52:23.926Z,100279.62
2018-09-29T17:54:51.470Z,100281.73
2018-09-29T17:57:19.071Z,100279.67
2018-09-29T17:59:46.591Z,100280.18
2018-09-29T18:02:14.178Z,100283.25
2018-09-29T18:04:41.756Z,100271.53
2018-09-29T18:07:09.270Z,100278.23
2018-09-29T18:09:36.827Z,100272.03
2018-09-29T18:12:04.350Z,100276.83
2018-09-29T18:14:32.099Z,100268.42
2018-09-29T18:16:59.936Z,100269.44
2018-09-29T18:19:27.670Z,100266.97
2018-09-29T18:21:56.176Z,100260.66
2018-09-29T18:24:24.331Z,100263.87
2018-09-29T18:26:51.915Z,100261.48
2018-09-29T18:29:19.593Z,100261.64
2018-09-29T18:31:47.167Z,100253.87
2018-09-29T18:34:14.820Z,100261.88
2018-09-29T18:36:42.700Z,100250.59
2018-09-29T18:39:10.354Z,100249.45
2018-09-29T18:41:37.904Z,100251.58
2018-09-29T18:44:05.537Z,100256.41
2018-09-29T18:46:33.060Z,100251.55
2018-09-29T18:49:00.656Z,100248.78
2018-09-29T18:51:28.591Z,100253.86
2018-09-29T18:53:56.311Z,100256.35
2018-09-29T18:56:24.124Z,100251.03
2018-09-29T18:58:51.642Z,100251.94
2018-09-29T19:01:19.275Z,100254.17
2018-09-29T19:03:46.850Z,100252.70
2018-09-29T19:06:14.422Z,100244.22
2018-09-29T19:08:42.078Z,100247.83
2018-09-29T19:11:09.906Z,100256.69
2018-09-29T19:13:47.562Z,100256.36
2018-09-29T19:16:15.258Z,100259.03
2018-09-29T19:18:43.133Z,100258.78
2018-09-29T19:21:11.220Z,100270.51
2018-09-29T19:23:39.308Z,100261.75
2018-09-29T19:26:07.415Z,100257.89
2018-09-29T19:31:12.736Z,100273.95
2018-09-29T19:33:41.047Z,100273.30
2018-09-29T19:36:12.260Z,100274.63
2018-09-29T19:41:14.203Z,100276.86
2018-09-29T19:43:42.208Z,100275.28
2018-09-29T19:46:10.290Z,100270.56
2018-09-29T19:48:37.978Z,100266.42
2018-09-29T19:51:06.560Z,100260.16
2018-09-29T19:53:34.913Z,100260.23
2018-09-29T19:56:02.599Z,100252.95
2018-09-29T19:58:30.255Z,100253.38
2018-09-29T20:00:58.202Z,100250.35
2018-09-29T20:03:25.847Z,100250.93
2018-09-29T20:05:53.493Z,100251.69
2018-09-29T20:08:21.424Z,100254.06
2018-09-29T20:10:49.405Z,100251.66
2018-09-29T20:13:17.337Z,100256.45
2018-09-29T20:15:45.499Z,100244.55
2018-09-29T20:18:13.613Z,100238.91
2018-09-29T20:20:41.759Z,100234.88
2018-09-29T20:23:09.435Z,100233.75
2018-09-29T20:25:37.066Z,100227.48
2018-09-29T20:28:04.690Z,100224.09
2018-09-29T20:30:32.434Z,100217.48
2018-09-29T20:33:00.105Z,100217.01
2018-09-29T20:35:27.829Z,100221.62
2018-09-29T20:37:56.157Z,100214.75
2018-09-29T20:40:24.252Z,100227.58
2018-09-29T20:42:51.949Z,100206.39
2018-09-29T20:45:19.672Z,100225.01
2018-09-29T20:47:47.329Z,100219.44
2018-09-29T20:50:14.997Z,100211.78
2018-09-29T20:52:42.738Z,100209.25
2018-09-29T20:55:10.366Z,100206.52
2018-09-29T20:57:38.019Z,100205.94
2018-09-29T21:00:05.702Z,100200.75
2018-09-29T21:02:33.692Z,100201.53
2018-09-29T21:05:02.153Z,100196.00
2018-09-29T21:07:30.117Z,100194.71
2018-09-29T21:09:58.406Z,100187.66
2018-09-29T21:12:26.418Z,100188.46
2018-09-29T21:14:54.379Z,100179.84
2018-09-29T21:17:22.331Z,100186.14
2018-09-29T21:19:50.041Z,100175.26
2018-09-29T21:22:18.147Z,100177.11
2018-09-29T21:24:46.238Z,100167.66
2018-09-29T21:27:14.006Z,100160.16
2018-09-29T21:29:42.010Z,100158.02
2018-09-29T21:32:10.933Z,100162.87
2018-09-29T21:34:40.137Z,100164.95
2018-09-29T21:37:08.758Z,100162.87
2018-09-29T21:39:37.399Z,100154.19
2018-09-29T21:42:05.501Z,100143.09
2018-09-29T21:44:33.490Z,100149.90
2018-09-29T21:47:01.577Z,100141.70
2018-09-29T21:49:29.933Z,100138.09
2018-09-29T21:51:57.999Z,100127.98
2018-09-29T21:54:25.831Z,100130.76
2018-09-29T21:56:53.977Z,100134.94
2018-09-29T21:59:22.003Z,100131.28
2018-09-29T22:01:49.792Z,100124.70
2018-09-29T22:04:17.730Z,100115.02
2018-09-29T22:06:45.997Z,100122.91
2018-09-29T22:09:14.013Z,100123.50
2018-09-29T22:11:44.606Z,100121.08
2018-09-29T22:14:12.805Z,100116.32
2018-09-29T22:16:41.069Z,100110.44
2018-09-29T22:19:09.979Z,100110.70
2018-09-29T22:21:38.261Z,100107.00
2018-09-29T22:24:06.485Z,100100.30
2018-09-29T22:26:34.957Z,100110.27
2018-09-29T22:29:03.170Z,100104.82
2018-09-29T22:31:31.208Z,100107.84
2018-09-29T22:33:59.293Z,100102.05
2018-09-29T22:36:26.966Z,100089.61
2018-09-29T22:38:55.257Z,100087.22
2018-09-29T22:41:23.321Z,100088.63
2018-09-29T22:43:51.417Z,100081.30
2018-09-29T22:46:20.871Z,100078.98
2018-09-29T22:48:48.913Z,100076.56
2018-09-29T22:51:16.739Z,100069.56
2018-09-29T22:53:44.857Z,100076.22
2018-09-29T22:56:12.777Z,100070.73
2018-09-29T22:58:40.690Z,100071.78
2018-09-29T23:01:08.499Z,100066.48
2018-09-29T23:03:36.184Z,100068.66
2018-09-29T23:06:03.847Z,100070.08
2018-09-29T23:08:31.655Z,100061.25
2018-09-29T23:10:59.375Z,100065.70
2018-09-29T23:13:27.025Z,100074.27
2018-09-29T23:15:54.920Z,100073.56
2018-09-29T23:18:22.545Z,100077.78
2018-09-29T23:20:50.270Z,100078.42
2018-09-29T23:23:17.866Z,100074.53
2018-09-29T23:25:45.457Z,100073.08
2018-09-29T23:28:13.110Z,100076.98
2018-09-29T23:30:40.728Z,100071.67
2018-09-29T23:33:08.443Z,100072.35
2018-09-29T23:35:36.046Z,100068.75
2018-09-29T23:38:03.783Z,100069.04
2018-09-29T23:40:31.388Z,100071.70
2018-09-29T23:42:59.095Z,100077.81
2018-09-29T23:45:26.879Z,100070.63
2018-09-29T23:47:54.524Z,100069.77
2018-09-29T23:50:22.191Z,100067.27
2018-09-29T23:52:49.832Z,100056.25
2018-09-29T23:55:17.500Z,100058.23
2018-09-29T23:57:45.134Z,100056.28
